createdAt,value
2017-04-21T00:00:26.573Z,19.72
2017-04-21T00:01:26.245Z,16.48
2017-04-21T00:02:26.612Z,16.93
2017-04-21T00:03:26.252Z,18.98
2017-04-21T00:04:26.670Z,18.53
2017-04-21T00:05:26.316Z,18.47
2017-04-21T00:06:26.068Z,18.07
2017-04-21T00:07:26.447Z,20.60
2017-04-21T00:08:26.900Z,24.13
2017-04-21T00:09:26.654Z,19.75
2017-04-21T00:10:26.397Z,20.65
2017-04-21T00:11:26.179Z,19.27
2017-04-21T00:12:25.852Z,19.72
2017-04-21T00:13:25.543Z,22.10
2017-04-21T00:14:25.175Z,15.63
2017-04-21T00:15:24.822Z,17.12
2017-04-21T00:16:24.451Z,17.18
2017-04-21T00:17:24.863Z,17.10
2017-04-21T00:18:24.709Z,23.87
2017-04-21T00:19:24.330Z,17.37
2017-04-21T00:20:23.966Z,17.08
2017-04-21T00:21:23.692Z,18.55
2017-04-21T00:22:24.133Z,20.43
2017-04-21T00:23:23.798Z,19.80
2017-04-21T00:24:23.413Z,20.27
2017-04-21T00:25:23.035Z,19.00
2017-04-21T00:26:22.652Z,19.52
2017-04-21T00:27:22.280Z,17.40
2017-04-21T00:28:21.892Z,21.15
2017-04-21T00:29:21.545Z,17.20
2017-04-21T00:30:21.217Z,18.02
2017-04-21T00:31:20.831Z,16.58
2017-04-21T00:32:20.463Z,17.97
2017-04-21T00:33:20.176Z,16.77
2017-04-21T00:34:20.644Z,19.27
2017-04-21T00:35:20.391Z,17.52
2017-04-21T00:36:20.025Z,16.42
2017-04-21T00:37:19.648Z,17.55
2017-04-21T00:38:19.277Z,18.33
2017-04-21T00:39:18.903Z,20.23
2017-04-21T00:40:18.551Z,18.10
2017-04-21T00:41:18.291Z,18.77
2017-04-21T00:42:18.013Z,16.23
2017-04-21T00:43:17.644Z,19.03
2017-04-21T00:44:17.316Z,19.43
2017-04-21T00:45:16.948Z,17.28
2017-04-21T00:46:16.561Z,17.12
2017-04-21T00:47:16.240Z,17.75
2017-04-21T00:48:15.852Z,17.25
2017-04-21T00:49:15.493Z,16.92
2017-04-21T00:50:15.109Z,18.57
2017-04-21T00:51:14.752Z,20.87
2017-04-21T00:52:14.435Z,15.27
2017-04-21T00:53:15.622Z,19.72
2017-04-21T00:54:15.243Z,18.50
2017-04-21T00:55:14.889Z,16.23
2017-04-21T00:56:14.526Z,20.33
2017-04-21T00:57:14.160Z,20.10
2017-04-21T00:58:14.654Z,19.40
2017-04-21T00:59:14.321Z,23.37
2017-04-21T01:00:13.937Z,16.28
2017-04-21T01:01:13.594Z,17.93
2017-04-21T01:02:13.232Z,16.62
2017-04-21T01:03:12.848Z,17.45
2017-04-21T01:04:12.564Z,19.62
2017-04-21T01:05:12.393Z,18.12
2017-04-21T01:06:12.817Z,19.65
2017-04-21T01:07:12.425Z,17.80
2017-04-21T01:08:12.047Z,17.25
2017-04-21T01:09:11.740Z,19.75
2017-04-21T01:10:11.365Z,16.63
2017-04-21T01:11:11.023Z,17.17
2017-04-21T01:12:10.693Z,16.50
2017-04-21T01:13:10.442Z,21.38
2017-04-21T01:14:10.160Z,16.95
2017-04-21T01:15:09.833Z,20.63
2017-04-21T01:16:09.460Z,18.63
2017-04-21T01:17:09.131Z,17.93
2017-04-21T01:18:08.757Z,18.88
2017-04-21T01:19:08.394Z,19.23
2017-04-21T01:20:08.180Z,18.28
2017-04-21T01:21:07.831Z,19.35
2017-04-21T01:22:07.543Z,17.23
2017-04-21T01:23:07.244Z,20.93
2017-04-21T01:24:07.076Z,20.57
2017-04-21T01:25:06.757Z,20.93
2017-04-21T01:26:06.397Z,16.35
2017-04-21T01:27:06.772Z,19.62
2017-04-21T01:28:06.386Z,17.58
2017-04-21T01:29:06.032Z,17.08
2017-04-21T01:30:05.744Z,19.12
2017-04-21T01:31:05.398Z,20.23
2017-04-21T01:32:05.018Z,21.08
2017-04-21T01:33:04.654Z,20.12
2017-04-21T01:34:04.434Z,21.92
2017-04-21T01:35:04.948Z,20.85
2017-04-21T01:36:04.572Z,19.50
2017-04-21T01:37:04.247Z,17.03
2017-04-21T01:38:04.617Z,19.03
2017-04-21T01:39:04.592Z,21.90
2017-04-21T01:40:04.209Z,23.02
2017-04-21T01:41:03.872Z,17.68
2017-04-21T01:42:03.517Z,17.70
2017-04-21T01:43:03.154Z,19.52
2017-04-21T01:44:03.537Z,18.18
2017-04-21T01:45:03.172Z,21.18
2017-04-21T01:46:02.808Z,16.78
2017-04-21T01:47:02.760Z,24.40
2017-04-21T01:48:02.464Z,22.88
2017-04-21T01:49:02.834Z,24.13
2017-04-21T01:50:02.445Z,23.22
2017-04-21T01:51:02.174Z,18.97
2017-04-21T01:52:02.571Z,18.22
2017-04-21T01:53:02.288Z,25.37
2017-04-21T01:54:01.908Z,24.93
2017-04-21T01:55:01.535Z,25.52
2017-04-21T01:56:01.183Z,18.77
2017-04-21T01:57:00.836Z,22.07
2017-04-21T01:58:00.484Z,27.05
2017-04-21T01:59:00.107Z,21.85
2017-04-21T01:59:59.808Z,18.72
2017-04-21T02:00:59.452Z,18.60
2017-04-21T02:01:59.068Z,22.05
2017-04-21T02:02:58.708Z,19.37
2017-04-21T02:03:58.414Z,18.12
2017-04-21T02:04:58.825Z,21.68
2017-04-21T02:05:58.488Z,18.88
2017-04-21T02:06:58.158Z,21.33
2017-04-21T02:07:57.825Z,24.08
2017-04-21T02:08:57.464Z,20.12
2017-04-21T02:09:57.129Z,20.73
2017-04-21T02:10:56.741Z,17.23
2017-04-21T02:11:56.429Z,21.37
2017-04-21T02:12:56.150Z,19.65
2017-04-21T02:13:55.852Z,18.87
2017-04-21T02:14:55.495Z,21.28
2017-04-21T02:15:55.247Z,22.75
2017-04-21T02:16:54.870Z,20.80
2017-04-21T02:17:54.547Z,22.48
2017-04-21T02:18:54.183Z,21.00
2017-04-21T02:19:53.804Z,22.02
2017-04-21T02:20:53.533Z,19.52
2017-04-21T02:21:53.191Z,18.72
2017-04-21T02:22:52.884Z,21.98
2017-04-21T02:23:52.500Z,16.65
2017-04-21T02:24:52.151Z,21.60
2017-04-21T02:25:51.922Z,23.10
2017-04-21T02:26:51.536Z,20.05
2017-04-21T02:27:51.220Z,22.10
2017-04-21T02:28:50.916Z,19.65
2017-04-21T02:29:50.557Z,21.32
2017-04-21T02:30:50.163Z,17.38
2017-04-21T02:31:49.895Z,19.95
2017-04-21T02:32:49.520Z,17.53
2017-04-21T02:33:49.190Z,16.98
2017-04-21T02:34:48.900Z,17.33
2017-04-21T02:35:48.524Z,15.78
2017-04-21T02:36:48.175Z,19.02
2017-04-21T02:37:47.848Z,16.87
2017-04-21T02:38:47.468Z,22.97
2017-04-21T02:39:47.131Z,19.02
2017-04-21T02:40:46.746Z,16.53
2017-04-21T02:41:46.482Z,19.08
2017-04-21T02:42:46.152Z,22.18
2017-04-21T02:43:45.770Z,16.50
2017-04-21T02:44:45.397Z,16.05
2017-04-21T02:45:45.073Z,18.10
2017-04-21T02:46:44.768Z,15.55
2017-04-21T02:47:44.406Z,17.08
2017-04-21T02:48:44.023Z,16.73
2017-04-21T02:49:43.678Z,14.45
2017-04-21T02:50:43.309Z,16.50
2017-04-21T02:51:43.056Z,17.83
2017-04-21T02:52:42.720Z,17.22
2017-04-21T02:53:42.336Z,16.22
2017-04-21T02:54:41.981Z,17.68
2017-04-21T02:55:41.676Z,17.72
2017-04-21T02:56:41.300Z,16.60
2017-04-21T02:57:41.040Z,17.22
2017-04-21T02:58:40.681Z,15.97
2017-04-21T02:59:40.309Z,15.75
2017-04-21T03:00:39.959Z,19.78
2017-04-21T03:01:39.607Z,17.80
2017-04-21T03:02:39.238Z,19.88
2017-04-21T03:03:38.916Z,18.45
2017-04-21T03:04:38.597Z,17.68
2017-04-21T03:05:38.218Z,20.57
2017-04-21T03:06:38.603Z,19.73
2017-04-21T03:07:38.229Z,18.48
2017-04-21T03:08:37.927Z,16.48
2017-04-21T03:09:37.628Z,14.52
2017-04-21T03:10:37.260Z,20.45
2017-04-21T03:11:36.876Z,21.45
2017-04-21T03:12:36.513Z,22.62
2017-04-21T03:13:36.212Z,18.07
2017-04-21T03:14:36.653Z,16.12
2017-04-21T03:15:36.334Z,22.22
2017-04-21T03:16:35.996Z,18.87
2017-04-21T03:17:35.624Z,18.83
2017-04-21T03:18:35.252Z,17.70
2017-04-21T03:19:34.888Z,16.47
2017-04-21T03:20:34.516Z,21.30
2017-04-21T03:21:34.179Z,21.78
2017-04-21T03:22:33.906Z,22.52
2017-04-21T03:23:33.527Z,20.37
2017-04-21T03:24:33.149Z,19.08
2017-04-21T03:25:32.776Z,20.92
2017-04-21T03:26:32.422Z,20.87
2017-04-21T03:27:32.369Z,19.13
2017-04-21T03:28:32.217Z,21.15
2017-04-21T03:29:32.072Z,18.88
2017-04-21T03:30:31.727Z,19.53
2017-04-21T03:31:31.347Z,19.28
2017-04-21T03:32:31.026Z,19.37
2017-04-21T03:33:30.753Z,19.48
2017-04-21T03:34:30.377Z,21.68
2017-04-21T03:35:30.088Z,19.05
2017-04-21T03:36:30.488Z,20.68
2017-04-21T03:37:30.171Z,17.43
2017-04-21T03:38:29.901Z,20.35
2017-04-21T03:39:29.629Z,15.03
2017-04-21T03:40:29.289Z,14.63
2017-04-21T03:41:28.939Z,17.75
2017-04-21T03:42:28.604Z,17.45
2017-04-21T03:43:28.268Z,14.97
2017-04-21T03:44:27.884Z,19.08
2017-04-21T03:45:27.552Z,19.80
2017-04-21T03:46:27.181Z,13.92
2017-04-21T03:47:26.820Z,17.30
2017-04-21T03:48:26.475Z,20.10
2017-04-21T03:49:26.100Z,17.37
2017-04-21T03:50:25.739Z,15.95
2017-04-21T03:51:25.466Z,17.30
2017-04-21T03:52:25.120Z,16.05
2017-04-21T03:53:24.744Z,14.40
2017-04-21T03:54:24.460Z,14.80
2017-04-21T03:55:24.082Z,17.03
2017-04-21T03:56:23.775Z,17.22
2017-04-21T03:57:23.428Z,18.20
2017-04-21T03:58:23.083Z,15.97
2017-04-21T03:59:22.750Z,14.77
2017-04-21T04:00:22.396Z,15.53
2017-04-21T04:01:22.023Z,18.68
2017-04-21T04:02:21.658Z,17.15
2017-04-21T04:03:21.341Z,13.32
2017-04-21T04:04:20.990Z,12.42
2017-04-21T04:05:20.616Z,15.23
2017-04-21T04:06:20.275Z,13.53
2017-04-21T04:07:19.877Z,13.17
2017-04-21T04:08:19.501Z,17.63
2017-04-21T04:09:19.180Z,12.32
2017-04-21T04:10:18.914Z,17.07
2017-04-21T04:11:18.542Z,16.30
2017-04-21T04:12:18.204Z,17.68
2017-04-21T04:13:17.821Z,13.22
2017-04-21T04:14:17.470Z,18.50
2017-04-21T04:15:17.280Z,16.35
2017-04-21T04:16:17.003Z,13.48
2017-04-21T04:17:16.698Z,14.88
2017-04-21T04:18:16.331Z,18.07
2017-04-21T04:19:15.945Z,14.77
2017-04-21T04:20:15.567Z,20.70
2017-04-21T04:21:15.238Z,29.93
2017-04-21T04:22:14.855Z,22.48
2017-04-21T04:23:14.478Z,19.02
2017-04-21T04:24:14.181Z,21.87
2017-04-21T04:25:13.825Z,24.00
2017-04-21T04:26:13.444Z,17.20
2017-04-21T04:27:13.110Z,21.00
2017-04-21T04:28:12.743Z,18.95
2017-04-21T04:29:12.361Z,16.80
2017-04-21T04:30:12.785Z,16.72
2017-04-21T04:31:12.437Z,17.37
2017-04-21T04:32:12.058Z,15.32
2017-04-21T04:33:11.732Z,14.68
2017-04-21T04:34:11.357Z,15.33
2017-04-21T04:35:10.987Z,16.20
2017-04-21T04:36:10.633Z,17.00
2017-04-21T04:37:10.253Z,12.83
2017-04-21T04:38:09.987Z,14.37
2017-04-21T04:39:09.703Z,13.57
2017-04-21T04:40:09.331Z,16.18
2017-04-21T04:41:08.945Z,17.52
2017-04-21T04:42:08.578Z,14.25
2017-04-21T04:43:08.227Z,16.25
2017-04-21T04:44:07.852Z,18.93
2017-04-21T04:45:08.357Z,16.32
2017-04-21T04:46:08.092Z,19.07
2017-04-21T04:47:07.732Z,21.48
2017-04-21T04:48:07.364Z,19.12
2017-04-21T04:49:06.993Z,18.27
2017-04-21T04:50:06.624Z,18.97
2017-04-21T04:51:06.288Z,21.15
2017-04-21T04:52:05.983Z,19.67
2017-04-21T04:53:05.723Z,20.58
2017-04-21T04:54:05.367Z,22.88
2017-04-21T04:55:04.996Z,16.55
2017-04-21T04:56:04.621Z,18.15
2017-04-21T04:57:04.312Z,15.10
2017-04-21T04:58:04.027Z,17.90
2017-04-21T04:59:04.409Z,18.38
2017-04-21T05:00:04.117Z,14.45
2017-04-21T05:01:03.750Z,17.32
2017-04-21T05:02:03.434Z,14.93
2017-04-21T05:03:03.168Z,15.08
2017-04-21T05:04:02.805Z,18.63
2017-04-21T05:05:02.449Z,14.17
2017-04-21T05:06:02.077Z,14.73
2017-04-21T05:07:01.705Z,17.48
2017-04-21T05:08:01.364Z,15.92
2017-04-21T05:09:01.064Z,17.82
2017-04-21T05:10:00.815Z,14.60
2017-04-21T05:11:00.446Z,11.72
2017-04-21T05:12:00.087Z,19.98
2017-04-21T05:12:59.761Z,16.97
2017-04-21T05:13:59.432Z,27.57
2017-04-21T05:14:59.153Z,29.13
2017-04-21T05:15:58.904Z,23.92
2017-04-21T05:16:58.543Z,17.23
2017-04-21T05:17:58.262Z,17.92
2017-04-21T05:18:58.716Z,14.35
2017-04-21T05:19:58.355Z,14.73
2017-04-21T05:20:58.048Z,14.97
2017-04-21T05:21:57.811Z,14.23
2017-04-21T05:22:58.184Z,18.45
2017-04-21T05:23:57.862Z,10.45
2017-04-21T05:24:57.511Z,11.95
2017-04-21T05:25:57.192Z,16.20
2017-04-21T05:26:56.871Z,16.32
2017-04-21T05:27:56.535Z,13.35
2017-04-21T05:28:56.188Z,16.65
2017-04-21T05:29:55.918Z,13.12
2017-04-21T05:30:55.810Z,17.92
2017-04-21T05:31:56.211Z,14.42
2017-04-21T05:32:55.925Z,13.40
2017-04-21T05:33:55.581Z,13.83
2017-04-21T05:34:55.210Z,11.12
2017-04-21T05:35:55.064Z,10.28
2017-04-21T05:36:54.734Z,12.57
2017-04-21T05:37:54.387Z,15.55
2017-04-21T05:38:54.277Z,13.03
2017-04-21T05:39:54.736Z,12.83
2017-04-21T05:40:54.433Z,12.32
2017-04-21T05:41:54.080Z,13.38
2017-04-21T05:42:53.942Z,10.17
2017-04-21T05:43:53.608Z,9.93
2017-04-21T05:44:53.638Z,15.23
2017-04-21T05:45:53.288Z,12.42
2017-04-21T05:46:53.035Z,13.62
2017-04-21T05:47:53.437Z,12.93
2017-04-21T05:48:53.284Z,13.28
2017-04-21T05:49:53.053Z,10.60
2017-04-21T05:50:52.708Z,14.88
2017-04-21T05:51:52.477Z,11.13
2017-04-21T05:52:52.124Z,13.48
2017-04-21T05:53:51.751Z,12.52
2017-04-21T05:54:51.395Z,14.05
2017-04-21T05:55:51.085Z,9.65
2017-04-21T05:56:50.730Z,14.55
2017-04-21T05:57:51.119Z,12.35
2017-04-21T05:58:50.848Z,13.93
2017-04-21T05:59:50.480Z,13.42
2017-04-21T06:00:50.141Z,13.20
2017-04-21T06:01:49.810Z,14.18
2017-04-21T06:02:49.536Z,9.07
2017-04-21T06:03:49.201Z,14.80
2017-04-21T06:04:48.933Z,8.82
2017-04-21T06:05:48.588Z,10.43
2017-04-21T06:06:48.197Z,9.72
2017-04-21T06:07:47.997Z,12.37
2017-04-21T06:08:47.641Z,10.07
2017-04-21T06:09:47.289Z,10.17
2017-04-21T06:10:46.918Z,12.60
2017-04-21T06:11:46.569Z,10.03
2017-04-21T06:12:46.242Z,8.42
2017-04-21T06:13:45.981Z,11.05
2017-04-21T06:14:45.681Z,10.27
2017-04-21T06:15:45.410Z,8.20
2017-04-21T06:16:45.139Z,8.12
2017-04-21T06:17:44.821Z,9.17
2017-04-21T06:18:44.485Z,11.33
2017-04-21T06:19:44.160Z,9.38
2017-04-21T06:20:43.801Z,20.25
2017-04-21T06:21:44.186Z,17.48
2017-04-21T06:22:43.914Z,8.78
2017-04-21T06:23:43.536Z,14.37
2017-04-21T06:24:43.163Z,10.83
2017-04-21T06:25:42.794Z,8.87
2017-04-21T06:26:42.438Z,9.72
2017-04-21T06:27:42.068Z,8.43
2017-04-21T06:28:41.796Z,10.45
2017-04-21T06:29:42.184Z,11.05
2017-04-21T06:30:41.873Z,10.43
2017-04-21T06:31:41.576Z,10.03
2017-04-21T06:32:41.245Z,9.62
2017-04-21T06:33:40.941Z,11.05
2017-04-21T06:34:40.678Z,11.75
2017-04-21T06:35:40.460Z,10.37
2017-04-21T06:36:40.203Z,10.50
2017-04-21T06:37:40.658Z,9.00
2017-04-21T06:38:40.372Z,12.55
2017-04-21T06:39:40.117Z,14.03
2017-04-21T06:40:39.792Z,12.13
2017-04-21T06:41:39.427Z,8.92
2017-04-21T06:42:39.076Z,12.58
2017-04-21T06:43:38.752Z,13.45
2017-04-21T06:44:38.415Z,10.17
2017-04-21T06:45:38.053Z,16.15
2017-04-21T06:46:37.687Z,14.08
2017-04-21T06:47:37.347Z,12.85
2017-04-21T06:48:36.995Z,11.18
2017-04-21T06:49:37.405Z,11.72
2017-04-21T06:50:37.841Z,11.57
2017-04-21T06:51:37.466Z,8.33
2017-04-21T06:52:37.092Z,12.57
2017-04-21T06:53:36.813Z,13.02
2017-04-21T06:54:36.461Z,10.08
2017-04-21T06:55:36.211Z,9.25
2017-04-21T06:56:36.577Z,12.27
2017-04-21T06:57:36.206Z,11.68
2017-04-21T06:58:35.845Z,10.55
2017-04-21T06:59:35.472Z,11.33
2017-04-21T07:00:35.116Z,9.88
2017-04-21T07:01:34.841Z,10.42
2017-04-21T07:02:43.297Z,9.43
2017-04-21T07:03:42.989Z,14.70
2017-04-21T07:04:42.637Z,11.10
2017-04-21T07:05:42.620Z,10.85
2017-04-21T07:06:42.428Z,10.22
2017-04-21T07:07:42.089Z,10.93
2017-04-21T07:08:41.781Z,10.25
2017-04-21T07:09:41.462Z,9.22
2017-04-21T07:10:41.089Z,9.42
2017-04-21T07:11:40.728Z,11.48
2017-04-21T07:12:40.396Z,9.95
2017-04-21T07:13:40.100Z,11.50
2017-04-21T07:14:39.744Z,9.07
2017-04-21T07:15:39.376Z,11.27
2017-04-21T07:16:39.090Z,9.98
2017-04-21T07:17:38.832Z,10.80
2017-04-21T07:18:38.602Z,13.12
2017-04-21T07:19:38.233Z,12.43
2017-04-21T07:20:37.880Z,10.00
2017-04-21T07:21:37.521Z,12.27
2017-04-21T07:22:37.177Z,11.08
2017-04-21T07:23:36.856Z,10.15
2017-04-21T07:24:36.544Z,10.82
2017-04-21T07:25:36.273Z,9.57
2017-04-21T07:26:36.644Z,12.72
2017-04-21T07:27:36.296Z,12.92
2017-04-21T07:28:35.938Z,9.27
2017-04-21T07:29:35.681Z,14.82
2017-04-21T07:30:35.346Z,10.08
2017-04-21T07:31:34.938Z,9.40
2017-04-21T07:32:34.587Z,11.13
2017-04-21T07:33:34.226Z,7.72
2017-04-21T07:34:33.864Z,9.95
2017-04-21T07:36:33.315Z,7.12
2017-04-21T07:37:32.956Z,10.87
2017-04-21T07:38:33.344Z,9.97
2017-04-21T07:39:33.074Z,10.58
2017-04-21T07:40:32.733Z,14.67
2017-04-21T07:41:32.352Z,12.50
2017-04-21T07:42:32.363Z,9.72
2017-04-21T07:43:32.075Z,12.05
2017-04-21T07:44:31.770Z,11.62
2017-04-21T07:45:32.141Z,9.38
2017-04-21T07:46:32.602Z,11.07
2017-04-21T07:47:32.292Z,10.65
2017-04-21T07:48:32.669Z,9.30
2017-04-21T07:49:32.315Z,12.25
2017-04-21T07:50:31.965Z,11.85
2017-04-21T07:51:31.706Z,11.37
2017-04-21T07:52:32.098Z,10.35
2017-04-21T07:53:31.775Z,16.75
2017-04-21T07:54:31.395Z,9.57
2017-04-21T07:55:31.115Z,9.95
2017-04-21T07:56:30.776Z,13.47
2017-04-21T07:57:30.417Z,11.05
2017-04-21T07:58:30.106Z,12.08
2017-04-21T07:59:29.817Z,14.33
2017-04-21T08:00:29.472Z,14.55
2017-04-21T08:01:29.160Z,16.53
2017-04-21T08:02:28.811Z,14.72
2017-04-21T08:03:28.453Z,9.83
2017-04-21T08:04:28.095Z,13.57
2017-04-21T08:05:27.880Z,8.60
2017-04-21T08:06:27.918Z,9.45
2017-04-21T08:07:27.543Z,10.53
2017-04-21T08:08:27.200Z,12.13
2017-04-21T08:09:26.841Z,9.92
2017-04-21T08:10:26.477Z,9.28
2017-04-21T08:11:26.159Z,7.30
2017-04-21T08:12:25.816Z,8.08
2017-04-21T08:13:25.460Z,10.13
2017-04-21T08:14:25.177Z,10.57
2017-04-21T08:15:24.832Z,10.28
2017-04-21T08:16:24.470Z,10.32
2017-04-21T08:17:24.150Z,7.20
2017-04-21T08:18:23.998Z,12.53
2017-04-21T08:19:23.632Z,10.27
2017-04-21T08:20:23.368Z,13.43
2017-04-21T08:21:23.023Z,8.62
2017-04-21T08:22:22.765Z,8.65
2017-04-21T08:23:22.479Z,9.97
2017-04-21T08:24:22.119Z,10.38
2017-04-21T08:25:21.757Z,13.10
2017-04-21T08:26:21.404Z,10.13
2017-04-21T08:27:21.058Z,8.43
2017-04-21T08:28:20.697Z,9.13
2017-04-21T08:29:20.380Z,10.10
2017-04-21T08:30:20.264Z,10.50
2017-04-21T08:31:19.912Z,10.77
2017-04-21T08:32:20.300Z,12.33
2017-04-21T08:33:19.937Z,14.07
2017-04-21T08:34:19.580Z,9.10
2017-04-21T08:35:19.269Z,8.63
2017-04-21T08:36:18.928Z,8.30
2017-04-21T08:37:18.586Z,9.82
2017-04-21T08:38:18.224Z,14.13
2017-04-21T08:39:17.944Z,7.62
2017-04-21T08:40:18.339Z,7.80
2017-04-21T08:41:18.088Z,9.67
2017-04-21T08:42:17.814Z,9.18
2017-04-21T08:43:17.484Z,13.43
2017-04-21T08:44:17.143Z,11.22
2017-04-21T08:45:16.779Z,9.15
2017-04-21T08:46:16.416Z,11.37
2017-04-21T08:47:16.100Z,11.08
2017-04-21T08:48:15.738Z,10.30
2017-04-21T08:49:15.378Z,8.57
2017-04-21T08:50:15.028Z,10.85
2017-04-21T08:51:14.696Z,10.20
2017-04-21T08:52:14.356Z,10.13
2017-04-21T08:53:14.046Z,9.13
2017-04-21T08:54:13.696Z,10.23
2017-04-21T08:55:13.431Z,10.08
2017-04-21T08:56:13.119Z,8.95
2017-04-21T08:57:12.760Z,9.98
2017-04-21T08:58:12.417Z,10.38
2017-04-21T08:59:12.108Z,10.63
2017-04-21T09:00:12.731Z,8.95
2017-04-21T09:01:13.215Z,10.15
2017-04-21T09:02:12.863Z,10.85
2017-04-21T09:03:12.485Z,13.65
2017-04-21T09:04:12.192Z,13.32
2017-04-21T09:05:11.943Z,7.92
2017-04-21T09:06:12.327Z,9.35
2017-04-21T09:07:11.979Z,11.78
2017-04-21T09:08:12.012Z,13.48
2017-04-21T09:09:11.653Z,11.30
2017-04-21T09:10:12.083Z,9.92
2017-04-21T09:11:11.770Z,10.52
2017-04-21T09:12:11.412Z,11.10
2017-04-21T09:13:11.062Z,10.78
2017-04-21T09:14:10.701Z,9.72
2017-04-21T09:15:10.361Z,14.48
2017-04-21T09:16:10.053Z,11.17
2017-04-21T09:17:10.554Z,10.97
2017-04-21T09:18:10.208Z,9.40
2017-04-21T09:19:09.925Z,10.88
2017-04-21T09:20:10.333Z,11.15
2017-04-21T09:21:10.017Z,12.37
2017-04-21T09:22:09.707Z,12.27
2017-04-21T09:23:09.329Z,10.83
2017-04-21T09:24:09.016Z,12.83
2017-04-21T09:25:08.753Z,10.65
2017-04-21T09:26:08.370Z,14.13
2017-04-21T09:27:08.137Z,13.40
2017-04-21T09:28:07.871Z,9.77
2017-04-21T09:29:08.261Z,14.97
2017-04-21T09:30:07.936Z,14.88
2017-04-21T09:31:07.574Z,11.98
2017-04-21T09:32:07.359Z,10.33
2017-04-21T09:33:07.239Z,11.05
2017-04-21T09:34:06.970Z,13.03
2017-04-21T09:35:06.664Z,13.13
2017-04-21T09:36:06.328Z,13.58
2017-04-21T09:37:06.078Z,13.77
2017-04-21T09:38:05.737Z,12.43
2017-04-21T09:39:06.186Z,11.80
2017-04-21T09:40:05.872Z,13.47
2017-04-21T09:41:05.518Z,15.95
2017-04-21T09:42:56.187Z,18.02
2017-04-21T09:43:59.396Z,17.22
2017-04-21T09:44:04.786Z,11.72
2017-04-21T09:45:04.486Z,15.35
2017-04-21T09:46:04.183Z,14.48
2017-04-21T09:47:03.839Z,11.80
2017-04-21T09:48:04.219Z,14.57
2017-04-21T09:49:03.849Z,15.93
2017-04-21T09:50:03.537Z,14.85
2017-04-21T09:51:03.243Z,15.73
2017-04-21T09:53:46.297Z,12.48
2017-04-21T09:54:14.143Z,15.10
2017-04-21T09:56:05.052Z,12.40
2017-04-21T09:57:06.052Z,13.43
2017-04-21T09:57:26.100Z,12.63
2017-04-21T09:59:56.065Z,13.25
2017-04-21T10:00:49.438Z,18.02
2017-04-21T10:04:02.572Z,14.72
2017-04-21T10:04:21.654Z,15.88
2017-04-21T10:06:18.535Z,12.90
2017-04-21T10:06:20.357Z,13.37
2017-04-21T10:06:34.017Z,18.37
2017-04-21T10:06:55.134Z,15.65
2017-04-21T10:07:59.736Z,13.33
2017-04-21T10:08:06.465Z,13.65
2017-04-21T10:08:06.466Z,14.38
2017-04-21T10:08:22.021Z,20.37
2017-04-21T10:08:59.843Z,13.13
2017-04-21T10:09:59.535Z,19.50
2017-04-21T10:10:59.149Z,11.98
2017-04-21T10:11:58.785Z,13.70
2017-04-21T10:12:58.494Z,15.88
2017-04-21T10:13:58.182Z,16.58
2017-04-21T10:14:58.020Z,14.53
2017-04-21T10:15:57.652Z,15.23
2017-04-21T10:16:57.456Z,14.92
2017-04-21T10:17:57.126Z,15.68
2017-04-21T10:18:56.796Z,13.72
2017-04-21T10:19:56.569Z,14.82
2017-04-21T10:20:56.364Z,17.72
2017-04-21T10:21:56.077Z,18.63
2017-04-21T10:22:55.755Z,21.27
2017-04-21T10:23:55.432Z,15.60
2017-04-21T10:24:55.108Z,16.42
2017-04-21T10:25:54.849Z,14.87
2017-04-21T10:26:54.744Z,16.92
2017-04-21T10:27:54.411Z,16.62
2017-04-21T10:28:54.074Z,15.67
2017-04-21T10:29:53.822Z,23.97
2017-04-21T10:30:53.461Z,22.28
2017-04-21T10:31:53.295Z,17.93
2017-04-21T10:32:53.233Z,15.32
2017-04-21T10:33:52.979Z,16.32
2017-04-21T10:34:52.657Z,19.00
2017-04-21T10:35:52.360Z,13.65
2017-04-21T10:36:52.012Z,16.65
2017-04-21T10:37:51.768Z,16.43
2017-04-21T10:38:51.431Z,21.22
2017-04-21T10:39:51.079Z,18.70
2017-04-21T10:40:50.861Z,17.63
2017-04-21T10:41:51.291Z,16.57
2017-04-21T10:42:50.940Z,19.57
2017-04-21T10:43:50.696Z,23.30
2017-04-21T10:44:50.375Z,19.70
2017-04-21T10:45:50.014Z,18.00
2017-04-21T10:46:49.696Z,17.92
2017-04-21T10:47:49.340Z,19.08
2017-04-21T10:48:48.997Z,17.70
2017-04-21T10:49:48.700Z,18.13
2017-04-21T10:50:48.460Z,18.32
2017-04-21T10:51:48.956Z,18.67
2017-04-21T10:52:48.652Z,15.67
2017-04-21T10:53:48.461Z,15.20
2017-04-21T10:54:48.105Z,18.18
2017-04-21T10:55:47.827Z,17.02
2017-04-21T10:56:48.233Z,15.53
2017-04-21T10:57:47.872Z,17.52
2017-04-21T10:58:47.549Z,20.87
2017-04-21T10:59:47.283Z,15.10
2017-04-21T11:00:46.979Z,24.82
2017-04-21T11:01:46.728Z,19.12
2017-04-21T11:02:46.390Z,20.23
2017-04-21T11:03:46.047Z,17.07
2017-04-21T11:04:45.776Z,17.20
2017-04-21T11:05:46.161Z,17.72
2017-04-21T11:06:45.802Z,17.10
2017-04-21T11:07:45.472Z,17.10
2017-04-21T11:08:45.132Z,16.95
2017-04-21T11:09:44.962Z,19.90
2017-04-21T11:10:44.750Z,15.40
2017-04-21T11:11:44.404Z,23.72
2017-04-21T11:12:44.048Z,16.55
2017-04-21T11:13:43.756Z,18.72
2017-04-21T11:14:43.484Z,18.13
2017-04-21T11:15:43.118Z,17.37
2017-04-21T11:16:42.748Z,16.02
2017-04-21T11:17:42.430Z,15.95
2017-04-21T11:18:42.167Z,16.15
2017-04-21T11:19:41.864Z,17.43
2017-04-21T11:20:42.377Z,16.82
2017-04-21T11:21:42.078Z,16.73
2017-04-21T11:22:42.459Z,16.43
2017-04-21T11:23:42.101Z,14.92
2017-04-21T11:24:41.826Z,18.63
2017-04-21T11:25:41.436Z,18.08
2017-04-21T11:26:41.078Z,19.92
2017-04-21T11:27:40.740Z,18.57
2017-04-21T11:28:40.587Z,20.88
2017-04-21T11:29:40.978Z,15.77
2017-04-21T11:30:40.694Z,17.98
2017-04-21T11:31:40.331Z,18.57
2017-04-21T11:32:40.035Z,16.22
2017-04-21T11:33:39.669Z,16.97
2017-04-21T11:34:39.346Z,21.23
2017-04-21T11:35:38.995Z,16.15
2017-04-21T11:36:38.720Z,17.43
2017-04-21T11:37:38.366Z,18.83
2017-04-21T11:38:38.021Z,18.27
2017-04-21T11:39:37.649Z,16.37
2017-04-21T11:40:37.290Z,16.78
2017-04-21T11:41:36.953Z,19.05
2017-04-21T11:42:36.645Z,18.08
2017-04-21T11:43:36.299Z,19.62
2017-04-21T11:44:36.228Z,20.92
2017-04-21T11:45:35.910Z,21.58
2017-04-21T11:46:35.552Z,19.55
2017-04-21T11:47:35.260Z,21.45
2017-04-21T11:48:34.948Z,22.45
2017-04-21T11:49:34.760Z,18.18
2017-04-21T11:50:35.121Z,18.23
2017-04-21T11:51:34.784Z,20.00
2017-04-21T11:52:34.413Z,19.05
2017-04-21T11:53:34.843Z,21.32
2017-04-21T11:54:34.583Z,23.02
2017-04-21T11:55:34.231Z,18.32
2017-04-21T11:56:33.864Z,23.15
2017-04-21T11:57:33.540Z,25.60
2017-04-21T11:58:33.210Z,24.68
2017-04-21T11:59:33.348Z,21.28
2017-04-21T12:00:33.065Z,19.50
2017-04-21T12:01:32.886Z,20.95
2017-04-21T12:02:32.579Z,21.20
2017-04-21T12:03:32.236Z,23.03
2017-04-21T12:04:31.976Z,22.23
2017-04-21T12:05:31.704Z,20.48
2017-04-21T12:06:31.480Z,17.42
2017-04-21T12:07:31.195Z,21.32
2017-04-21T12:08:30.840Z,22.82
2017-04-21T12:09:30.570Z,20.88
2017-04-21T12:10:30.252Z,27.32
2017-04-21T12:11:29.924Z,22.73
2017-04-21T12:12:29.664Z,27.23
2017-04-21T12:13:29.316Z,23.82
2017-04-21T12:14:29.370Z,19.93
2017-04-21T12:15:29.191Z,19.07
2017-04-21T12:16:28.850Z,20.33
2017-04-21T12:17:28.552Z,20.60
2017-04-21T12:18:28.199Z,18.60
2017-04-21T12:19:27.893Z,25.02
2017-04-21T12:20:27.532Z,23.77
2017-04-21T12:21:27.507Z,20.03
2017-04-21T12:22:27.236Z,19.25
2017-04-21T12:23:26.926Z,18.68
2017-04-21T12:24:26.564Z,20.60
2017-04-21T12:25:26.208Z,20.43
2017-04-21T12:26:25.856Z,20.33
2017-04-21T12:27:25.517Z,21.62
2017-04-21T12:28:25.249Z,19.40
2017-04-21T12:29:24.948Z,21.22
2017-04-21T12:30:24.652Z,17.57
2017-04-21T12:31:24.290Z,20.82
2017-04-21T12:32:23.926Z,17.72
2017-04-21T12:33:23.555Z,19.68
2017-04-21T12:34:23.187Z,17.97
2017-04-21T12:35:22.990Z,16.88
2017-04-21T12:36:22.688Z,23.37
2017-04-21T12:37:22.340Z,18.12
2017-04-21T12:38:22.002Z,18.50
2017-04-21T12:39:21.726Z,19.60
2017-04-21T12:40:21.406Z,20.87
2017-04-21T12:41:21.140Z,21.22
2017-04-21T12:42:20.797Z,23.35
2017-04-21T12:43:20.468Z,17.78
2017-04-21T12:44:20.112Z,21.82
2017-04-21T12:45:19.776Z,18.02
2017-04-21T12:46:19.469Z,21.90
2017-04-21T12:47:19.454Z,20.95
2017-04-21T12:48:19.111Z,16.53
2017-04-21T12:49:18.929Z,22.28
2017-04-21T12:50:18.714Z,18.87
2017-04-21T12:51:19.134Z,18.32
2017-04-21T12:52:19.558Z,15.80